createdAt,value
2023-04-27T00:02:16.125Z,13.70
2023-04-27T00:07:35.465Z,13.60
2023-04-27T00:10:04.754Z,13.70
2023-04-27T00:12:33.843Z,13.70
2023-04-27T00:15:02.914Z,13.70
2023-04-27T00:17:32.602Z,13.60
2023-04-27T00:20:02.379Z,13.60
2023-04-27T00:22:33.001Z,13.60
2023-04-27T00:25:02.176Z,13.60
2023-04-27T00:27:31.117Z,13.60
2023-04-27T00:30:00.200Z,13.60
2023-04-27T00:32:29.414Z,13.60
2023-04-27T00:34:58.547Z,13.70
2023-04-27T00:37:27.649Z,13.60
2023-04-27T00:39:59.037Z,13.60
2023-04-27T00:42:28.204Z,13.60
2023-04-27T00:44:59.593Z,13.70
2023-04-27T00:47:28.812Z,13.70
2023-04-27T00:49:58.221Z,13.70
2023-04-27T00:52:28.763Z,13.60
2023-04-27T00:54:59.672Z,13.60
2023-04-27T00:57:29.226Z,13.70
2023-04-27T00:59:58.289Z,13.60
2023-04-27T01:02:28.069Z,13.70
2023-04-27T01:04:58.032Z,13.70
2023-04-27T01:07:28.113Z,13.70
2023-04-27T01:09:58.560Z,13.70
2023-04-27T01:12:27.630Z,13.70
2023-04-27T01:14:56.765Z,13.70
2023-04-27T01:17:25.958Z,13.70
2023-04-27T01:19:56.938Z,13.70
2023-04-27T01:22:26.244Z,13.60
2023-04-27T01:24:56.854Z,13.60
2023-04-27T01:27:26.001Z,13.60
2023-04-27T01:29:55.065Z,13.60
2023-04-27T01:32:24.125Z,13.50
2023-04-27T01:34:54.691Z,13.50
2023-04-27T01:37:28.441Z,13.50
2023-04-27T01:39:58.874Z,13.40
2023-04-27T01:42:28.229Z,13.40
2023-04-27T01:44:57.239Z,13.30
2023-04-27T01:47:26.240Z,13.30
2023-04-27T01:49:55.511Z,13.30
2023-04-27T01:52:24.384Z,13.30
2023-04-27T01:54:53.399Z,13.30
2023-04-27T01:57:25.540Z,13.30
2023-04-27T01:59:54.669Z,13.30
2023-04-27T02:02:24.254Z,13.40
2023-04-27T02:04:53.445Z,13.40
2023-04-27T02:07:22.956Z,13.40
2023-04-27T02:09:52.006Z,13.40
2023-04-27T02:12:21.033Z,13.40
2023-04-27T02:14:51.406Z,13.40
2023-04-27T02:17:20.292Z,13.40
2023-04-27T02:19:49.552Z,13.40
2023-04-27T02:22:37.116Z,13.40
2023-04-27T02:25:06.876Z,13.40
2023-04-27T02:27:39.172Z,13.40
2023-04-27T02:30:11.928Z,13.40
2023-04-27T02:32:41.617Z,13.30
2023-04-27T02:35:11.703Z,13.30
2023-04-27T02:37:41.212Z,13.30
2023-04-27T02:40:11.482Z,13.30
2023-04-27T02:42:40.402Z,13.30
2023-04-27T02:45:11.693Z,13.30
2023-04-27T02:47:40.822Z,13.30
2023-04-27T02:50:10.775Z,13.30
2023-04-27T02:52:39.664Z,13.30
2023-04-27T02:55:09.393Z,13.30
2023-04-27T02:57:38.403Z,13.30
2023-04-27T03:00:11.444Z,13.30
2023-04-27T03:02:40.508Z,13.30
2023-04-27T03:05:10.236Z,13.30
2023-04-27T03:07:39.246Z,13.30
2023-04-27T03:10:09.002Z,13.30
2023-04-27T03:12:38.006Z,13.30
2023-04-27T03:15:08.107Z,13.30
2023-04-27T03:17:39.852Z,13.30
2023-04-27T03:20:27.497Z,13.30
2023-04-27T03:22:56.440Z,13.30
2023-04-27T03:25:43.934Z,13.30
2023-04-27T03:28:12.825Z,13.30
2023-04-27T03:30:42.474Z,13.30
2023-04-27T03:33:13.058Z,13.30
2023-04-27T03:35:42.187Z,13.30
2023-04-27T03:38:11.151Z,13.30
2023-04-27T03:40:40.102Z,13.30
2023-04-27T03:43:09.650Z,13.30
2023-04-27T03:45:38.657Z,13.30
2023-04-27T03:48:08.589Z,13.30
2023-04-27T03:50:39.518Z,13.40
2023-04-27T03:53:08.866Z,13.40
2023-04-27T03:55:40.391Z,13.40
2023-04-27T03:58:10.698Z,13.40
2023-04-27T04:00:58.966Z,13.40
2023-04-27T04:03:28.322Z,13.40
2023-04-27T04:05:59.439Z,13.40
2023-04-27T04:08:28.533Z,13.40
2023-04-27T04:10:58.478Z,13.40
2023-04-27T04:13:27.384Z,13.40
2023-04-27T04:16:03.640Z,13.40
2023-04-27T04:18:32.846Z,13.50
2023-04-27T04:21:03.403Z,13.50
2023-04-27T04:23:33.161Z,13.50
2023-04-27T04:26:02.482Z,13.50
2023-04-27T04:28:36.249Z,13.50
2023-04-27T04:31:06.743Z,13.50
2023-04-27T04:33:36.168Z,13.50
2023-04-27T04:36:07.963Z,13.50
2023-04-27T04:38:37.146Z,13.50
2023-04-27T04:41:07.535Z,13.60
2023-04-27T04:43:36.723Z,13.60
2023-04-27T04:46:08.681Z,13.60
2023-04-27T04:48:38.016Z,13.60
2023-04-27T04:51:08.794Z,13.60
2023-04-27T04:53:38.426Z,13.60
2023-04-27T04:56:11.486Z,13.60
2023-04-27T04:58:41.107Z,13.60
2023-04-27T05:01:09.985Z,13.60
2023-04-27T05:03:39.054Z,13.60
2023-04-27T05:06:10.251Z,13.60
2023-04-27T05:08:39.308Z,13.60
2023-04-27T05:11:08.220Z,13.70
2023-04-27T05:13:38.531Z,13.70
2023-04-27T05:16:08.340Z,13.70
2023-04-27T05:18:37.722Z,13.70
2023-04-27T05:21:06.733Z,13.70
2023-04-27T05:23:37.368Z,13.70
2023-04-27T05:26:13.627Z,13.70
2023-04-27T05:28:42.825Z,13.70
2023-04-27T05:31:11.849Z,13.70
2023-04-27T05:33:41.696Z,13.70
2023-04-27T05:36:11.155Z,13.70
2023-04-27T05:38:41.873Z,13.70
2023-04-27T05:41:10.764Z,13.70
2023-04-27T05:43:40.061Z,13.60
2023-04-27T05:46:09.586Z,13.70
2023-04-27T05:48:38.556Z,13.60
2023-04-27T05:51:07.721Z,13.60
2023-04-27T05:53:37.089Z,13.60
2023-04-27T05:56:08.395Z,13.60
2023-04-27T05:58:37.362Z,13.60
2023-04-27T06:01:07.850Z,13.60
2023-04-27T06:03:37.197Z,13.50
2023-04-27T06:06:06.884Z,13.50
2023-04-27T06:08:37.660Z,13.50
2023-04-27T06:11:08.287Z,13.50
2023-04-27T06:13:37.366Z,13.50
2023-04-27T06:16:07.113Z,13.40
2023-04-27T06:18:36.090Z,13.40
2023-04-27T06:21:05.456Z,13.40
2023-04-27T06:23:34.384Z,13.40
2023-04-27T06:26:03.728Z,13.40
2023-04-27T06:28:34.126Z,13.40
2023-04-27T06:31:03.468Z,13.40
2023-04-27T06:33:32.521Z,13.40
2023-04-27T06:36:02.833Z,13.30
2023-04-27T06:38:32.305Z,13.30
2023-04-27T06:41:07.209Z,13.30
2023-04-27T06:43:38.977Z,13.30
2023-04-27T06:46:08.812Z,13.30
2023-04-27T06:48:37.771Z,13.30
2023-04-27T06:51:07.231Z,13.40
2023-04-27T06:53:37.093Z,13.30
2023-04-27T06:56:06.513Z,13.40
2023-04-27T06:58:36.088Z,13.40
2023-04-27T07:01:09.561Z,13.40
2023-04-27T07:03:38.928Z,13.40
2023-04-27T07:06:08.544Z,13.40
2023-04-27T07:08:37.980Z,13.40
2023-04-27T07:11:07.112Z,13.40
2023-04-27T07:13:36.714Z,13.40
2023-04-27T07:16:14.949Z,13.50
2023-04-27T07:18:53.710Z,13.50
2023-04-27T07:21:24.573Z,13.50
2023-04-27T07:23:54.391Z,13.50
2023-04-27T07:26:25.705Z,13.60
2023-04-27T07:29:11.210Z,13.60
2023-04-27T07:31:53.850Z,13.60
2023-04-27T07:34:23.225Z,13.60
2023-04-27T07:36:55.344Z,13.60
2023-04-27T07:39:43.231Z,13.60
2023-04-27T07:42:12.111Z,13.60
2023-04-27T07:44:41.163Z,13.60
2023-04-27T07:47:11.889Z,13.60
2023-04-27T07:49:41.079Z,13.50
2023-04-27T07:52:10.890Z,13.60
2023-04-27T07:54:39.893Z,13.60
2023-04-27T07:57:11.792Z,13.60
2023-04-27T07:59:41.506Z,13.60
2023-04-27T08:02:19.849Z,13.60
2023-04-27T08:04:49.956Z,13.60
2023-04-27T08:07:19.801Z,13.60
2023-04-27T08:09:48.996Z,13.60
2023-04-27T08:12:18.177Z,13.30
2023-04-27T08:14:47.366Z,13.60
2023-04-27T08:17:19.099Z,13.60
2023-04-27T08:20:08.031Z,13.70
2023-04-27T08:22:37.502Z,13.60
2023-04-27T08:25:25.072Z,13.70
2023-04-27T08:27:54.622Z,13.70
2023-04-27T08:30:23.818Z,13.70
2023-04-27T08:32:54.920Z,13.70
2023-04-27T08:35:24.220Z,13.70
2023-04-27T08:38:12.115Z,13.70
2023-04-27T08:40:44.725Z,13.70
2023-04-27T08:43:14.100Z,13.70
2023-04-27T08:45:50.627Z,13.70
2023-04-27T08:48:21.710Z,13.70
2023-04-27T08:50:53.065Z,13.70
2023-04-27T08:53:22.900Z,13.70
2023-04-27T08:55:52.688Z,13.70
2023-04-27T08:58:22.031Z,13.70
2023-04-27T09:00:52.649Z,13.70
2023-04-27T09:03:26.379Z,13.80
2023-04-27T09:06:03.721Z,13.80
2023-04-27T09:08:44.149Z,13.80
2023-04-27T09:11:13.510Z,13.80
2023-04-27T09:13:45.476Z,13.90
2023-04-27T09:16:15.464Z,13.90
2023-04-27T09:18:46.595Z,13.90
2023-04-27T09:21:25.175Z,13.90
2023-04-27T09:23:54.652Z,14.00
2023-04-27T09:26:25.291Z,14.10
2023-04-27T09:28:58.176Z,14.10
2023-04-27T09:31:33.436Z,14.10
2023-04-27T09:34:04.498Z,14.10
2023-04-27T09:36:33.732Z,14.10
2023-04-27T09:39:06.259Z,14.20
2023-04-27T09:41:35.610Z,14.20
2023-04-27T09:44:04.909Z,14.30
2023-04-27T09:46:41.557Z,14.30
2023-04-27T09:49:14.774Z,14.30
2023-04-27T09:51:43.908Z,14.30
2023-04-27T09:54:35.629Z,14.30
2023-04-27T09:57:17.544Z,14.30
2023-04-27T10:00:11.261Z,14.30
2023-04-27T10:02:53.541Z,14.30
2023-04-27T10:06:01.232Z,14.30
2023-04-27T10:08:31.439Z,14.30
2023-04-27T10:11:00.383Z,14.30
2023-04-27T10:13:32.977Z,14.30
2023-04-27T10:16:17.510Z,14.30
2023-04-27T10:18:54.152Z,14.30
2023-04-27T10:21:25.104Z,14.30
2023-04-27T10:24:12.684Z,14.30
2023-04-27T10:26:48.531Z,14.30
2023-04-27T10:29:18.837Z,14.30
2023-04-27T10:31:50.120Z,14.20
2023-04-27T10:34:21.728Z,14.20
2023-04-27T10:37:07.239Z,14.20
2023-04-27T10:39:47.702Z,14.10
2023-04-27T10:42:28.795Z,14.00
2023-04-27T10:44:59.580Z,14.00
2023-04-27T10:47:39.404Z,14.00
2023-04-27T10:50:11.715Z,14.00
2023-04-27T10:52:44.491Z,13.90
2023-04-27T10:55:36.805Z,13.90
2023-04-27T10:58:07.052Z,13.90
2023-04-27T11:00:38.047Z,13.80
2023-04-27T11:03:16.737Z,13.80
2023-04-27T11:05:48.333Z,13.70
2023-04-27T11:08:21.128Z,13.60
2023-04-27T11:10:57.262Z,13.60
2023-04-27T11:13:28.770Z,13.60
2023-04-27T11:15:59.982Z,13.60
2023-04-27T11:18:32.277Z,13.50
2023-04-27T11:21:10.025Z,13.50
2023-04-27T11:23:41.509Z,13.40
2023-04-27T11:26:14.991Z,13.40
2023-04-27T11:28:44.547Z,13.30
2023-04-27T11:31:14.241Z,13.30
2023-04-27T11:33:50.527Z,13.30
2023-04-27T11:36:21.284Z,13.30
2023-04-27T11:38:52.051Z,13.20
2023-04-27T11:41:21.326Z,13.20
2023-04-27T11:43:51.404Z,13.20
2023-04-27T11:46:22.718Z,13.10
2023-04-27T11:49:10.518Z,13.10
2023-04-27T11:51:41.791Z,13.10
2023-04-27T11:54:32.061Z,13.10
2023-04-27T11:57:07.680Z,13.10
2023-04-27T11:59:36.656Z,13.00
2023-04-27T12:02:06.019Z,13.00
2023-04-27T12:04:35.139Z,13.00
2023-04-27T12:07:05.332Z,13.00
2023-04-27T12:09:35.901Z,13.00
2023-04-27T12:12:05.414Z,13.00
2023-04-27T12:14:34.470Z,13.00
2023-04-27T12:17:03.489Z,13.00
2023-04-27T12:19:32.487Z,13.00
2023-04-27T12:22:01.435Z,13.00
2023-04-27T12:24:30.536Z,12.90
2023-04-27T12:27:01.571Z,12.90
2023-04-27T12:29:32.272Z,12.90
2023-04-27T12:32:02.916Z,12.80
2023-04-27T12:34:32.107Z,12.80
2023-04-27T12:37:01.648Z,12.80
2023-04-27T12:39:31.260Z,12.70
2023-04-27T12:42:02.771Z,12.60
2023-04-27T12:44:32.036Z,12.70
2023-04-27T12:47:01.165Z,12.70
2023-04-27T12:49:30.278Z,12.60
2023-04-27T12:51:59.679Z,12.60
2023-04-27T12:54:28.921Z,12.60
2023-04-27T12:56:59.275Z,12.60
2023-04-27T12:59:32.565Z,12.50
2023-04-27T13:02:05.488Z,12.50
2023-04-27T13:04:34.837Z,12.50
2023-04-27T13:07:04.167Z,12.50
2023-04-27T13:09:33.390Z,12.40
2023-04-27T13:12:02.445Z,12.40
2023-04-27T13:14:43.234Z,12.40
2023-04-27T13:17:22.743Z,12.40
2023-04-27T13:20:00.033Z,12.40
2023-04-27T13:22:30.560Z,12.30
2023-04-27T13:25:08.587Z,12.30
2023-04-27T13:27:38.878Z,12.30
2023-04-27T13:30:18.762Z,12.30
2023-04-27T13:32:49.345Z,12.20
2023-04-27T13:35:18.559Z,12.20
2023-04-27T13:37:48.221Z,12.20
2023-04-27T13:40:17.332Z,12.20
2023-04-27T13:42:48.107Z,12.20
2023-04-27T13:45:18.669Z,12.20
2023-04-27T13:47:47.788Z,12.20
2023-04-27T13:50:16.725Z,12.20
2023-04-27T13:52:45.792Z,12.10
2023-04-27T13:55:14.970Z,12.10
2023-04-27T13:57:43.998Z,12.10
2023-04-27T14:00:14.387Z,12.10
2023-04-27T14:02:44.924Z,12.10
2023-04-27T14:05:14.023Z,12.10
2023-04-27T14:07:43.137Z,12.10
2023-04-27T14:10:12.650Z,12.10
2023-04-27T14:12:41.935Z,12.10
2023-04-27T14:15:11.749Z,12.10
2023-04-27T14:17:40.728Z,12.10
2023-04-27T14:20:11.872Z,12.10
2023-04-27T14:22:41.076Z,12.10
2023-04-27T14:25:10.866Z,12.10
2023-04-27T14:27:40.165Z,12.10
2023-04-27T14:30:10.524Z,12.10
2023-04-27T14:32:39.563Z,12.10
2023-04-27T14:35:11.045Z,12.10
2023-04-27T14:37:40.315Z,12.10
2023-04-27T14:40:10.650Z,12.10
2023-04-27T14:42:39.691Z,12.10
2023-04-27T14:45:09.990Z,12.20
2023-04-27T14:47:39.292Z,12.20
2023-04-27T14:50:11.820Z,12.20
2023-04-27T14:52:41.165Z,12.20
2023-04-27T14:55:11.826Z,12.30
2023-04-27T14:57:41.231Z,12.20
2023-04-27T15:00:11.541Z,12.20
2023-04-27T15:02:40.631Z,12.20
2023-04-27T15:05:11.722Z,12.30
2023-04-27T15:07:40.962Z,12.30
2023-04-27T15:10:11.133Z,12.20
2023-04-27T15:12:40.037Z,12.20
2023-04-27T15:15:10.690Z,12.20
2023-04-27T15:17:39.915Z,12.20
2023-04-27T15:20:14.321Z,12.20
2023-04-27T15:22:43.404Z,12.20
2023-04-27T15:25:12.627Z,12.20
2023-04-27T15:27:41.743Z,12.20
2023-04-27T15:30:11.633Z,12.10
2023-04-27T15:32:41.461Z,12.10
2023-04-27T15:35:12.567Z,12.00
2023-04-27T15:37:42.417Z,12.00
2023-04-27T15:40:13.831Z,12.00
2023-04-27T15:42:43.701Z,11.90
2023-04-27T15:45:13.695Z,11.90
2023-04-27T15:47:44.609Z,11.90
2023-04-27T15:50:16.710Z,11.90
2023-04-27T15:52:48.202Z,11.80
2023-04-27T15:55:18.264Z,11.80
2023-04-27T15:57:48.470Z,11.80
2023-04-27T16:00:22.922Z,11.80
2023-04-27T16:02:53.264Z,11.80
2023-04-27T16:05:26.363Z,11.80
2023-04-27T16:07:59.351Z,11.80
2023-04-27T16:10:29.510Z,11.80
2023-04-27T16:12:59.525Z,11.80
2023-04-27T16:15:29.807Z,11.70
2023-04-27T16:18:00.347Z,11.70
2023-04-27T16:20:33.123Z,11.70
2023-04-27T16:23:07.180Z,11.70
2023-04-27T16:25:36.985Z,11.60
2023-04-27T16:28:08.662Z,11.60
2023-04-27T16:30:39.968Z,11.60
2023-04-27T16:33:10.381Z,11.60
2023-04-27T16:35:43.099Z,11.50
2023-04-27T16:38:14.134Z,11.50
2023-04-27T16:40:44.250Z,11.30
2023-04-27T16:43:14.403Z,11.20
2023-04-27T16:45:44.148Z,11.00
2023-04-27T16:48:15.932Z,10.90
2023-04-27T16:50:49.446Z,10.80
2023-04-27T16:53:28.263Z,10.70
2023-04-27T16:56:04.970Z,10.60
2023-04-27T16:58:36.769Z,10.50
2023-04-27T17:01:08.082Z,10.40
2023-04-27T17:03:40.216Z,10.40
2023-04-27T17:06:14.114Z,10.30
2023-04-27T17:08:45.564Z,10.30
2023-04-27T17:11:23.709Z,10.20
2023-04-27T17:14:02.558Z,10.20
2023-04-27T17:16:32.912Z,10.20
2023-04-27T17:19:08.026Z,10.20
2023-04-27T17:21:42.220Z,10.20
2023-04-27T17:24:12.351Z,10.20
2023-04-27T17:26:45.412Z,10.20
2023-04-27T17:29:18.734Z,10.20
2023-04-27T17:31:51.769Z,10.20
2023-04-27T17:34:23.459Z,10.30
2023-04-27T17:36:56.377Z,10.30
2023-04-27T17:39:26.451Z,10.30
2023-04-27T17:41:59.942Z,10.30
2023-04-27T17:44:32.783Z,10.40
2023-04-27T17:47:24.984Z,10.40
2023-04-27T17:50:00.688Z,10.40
2023-04-27T17:52:34.971Z,10.40
2023-04-27T17:55:05.328Z,10.40
2023-04-27T17:57:44.920Z,10.40
2023-04-27T18:00:20.483Z,10.40
2023-04-27T18:02:53.691Z,9.50
2023-04-27T18:05:25.612Z,10.40
2023-04-27T18:07:58.652Z,10.30
2023-04-27T18:10:31.011Z,10.30
2023-04-27T18:13:03.884Z,10.40
2023-04-27T18:15:35.653Z,10.40
2023-04-27T18:18:09.686Z,10.40
2023-04-27T18:20:48.213Z,10.40
2023-04-27T18:23:23.507Z,10.50
2023-04-27T18:26:05.225Z,10.50
2023-04-27T18:28:36.368Z,10.50
2023-04-27T18:31:16.006Z,10.50
2023-04-27T18:33:48.796Z,10.50
2023-04-27T18:36:21.712Z,10.50
2023-04-27T18:38:58.780Z,10.50
2023-04-27T18:41:32.966Z,10.50
2023-04-27T18:44:32.859Z,10.50
2023-04-27T18:47:17.331Z,10.50
2023-04-27T18:50:01.412Z,10.50
2023-04-27T18:52:35.749Z,10.50
2023-04-27T18:55:42.203Z,10.50
2023-04-27T18:58:27.551Z,10.40
2023-04-27T19:08:25.794Z,11.30
2023-04-27T19:11:00.335Z,10.30
2023-04-27T19:13:34.492Z,10.30
2023-04-27T19:16:07.457Z,10.20
2023-04-27T19:18:43.504Z,10.20
2023-04-27T19:21:17.118Z,10.20
2023-04-27T19:23:51.683Z,10.20
2023-04-27T19:26:29.043Z,10.20
2023-04-27T19:29:13.540Z,10.20
2023-04-27T19:32:13.875Z,10.10
2023-04-27T19:34:47.758Z,10.10
2023-04-27T19:37:19.953Z,10.20
2023-04-27T19:39:51.001Z,10.20
2023-04-27T19:42:22.575Z,10.30
2023-04-27T19:44:56.943Z,10.30
2023-04-27T19:47:27.347Z,10.30
2023-04-27T19:49:59.452Z,10.30
2023-04-27T19:52:34.413Z,10.30
2023-04-27T19:55:05.906Z,10.20
2023-04-27T19:57:37.778Z,10.20
2023-04-27T20:00:15.210Z,10.20
2023-04-27T20:02:45.420Z,10.20
2023-04-27T20:05:14.885Z,10.20
2023-04-27T20:07:44.288Z,10.30
2023-04-27T20:10:13.317Z,10.30
2023-04-27T20:12:55.503Z,10.30
2023-04-27T20:15:28.969Z,10.20
2023-04-27T20:17:58.106Z,10.20
2023-04-27T20:20:27.102Z,10.30
2023-04-27T20:22:56.751Z,10.30
2023-04-27T20:25:26.383Z,10.20
2023-04-27T20:27:55.451Z,10.20
2023-04-27T20:30:24.555Z,10.20
2023-04-27T20:32:56.840Z,9.70
2023-04-27T20:35:26.565Z,10.10
2023-04-27T20:37:55.704Z,10.10
2023-04-27T20:40:24.588Z,10.10
2023-04-27T20:42:53.894Z,10.10
2023-04-27T20:45:25.418Z,10.00
2023-04-27T20:47:57.551Z,10.00
2023-04-27T20:50:26.817Z,10.00
2023-04-27T20:52:56.079Z,10.00
2023-04-27T20:55:25.548Z,10.00
2023-04-27T20:57:55.378Z,9.90
2023-04-27T21:00:24.327Z,9.90
2023-04-27T21:02:54.031Z,9.90
2023-04-27T21:05:25.924Z,9.90
2023-04-27T21:08:13.471Z,9.90
2023-04-27T21:10:42.537Z,9.90
2023-04-27T21:13:30.561Z,9.90
2023-04-27T21:15:59.450Z,9.80
2023-04-27T21:18:30.229Z,9.80
2023-04-27T21:21:01.859Z,9.80
2023-04-27T21:23:31.154Z,9.80
2023-04-27T21:26:00.130Z,9.80
2023-04-27T21:28:29.189Z,9.80
2023-04-27T21:30:58.404Z,9.80
2023-04-27T21:33:27.353Z,9.80
2023-04-27T21:35:56.293Z,9.80
2023-04-27T21:38:27.118Z,9.80
2023-04-27T21:41:05.378Z,9.80
2023-04-27T21:43:37.070Z,9.80
2023-04-27T21:46:06.172Z,9.80
2023-04-27T21:48:36.886Z,9.80
2023-04-27T21:51:06.106Z,9.80
2023-04-27T21:53:36.639Z,9.80
2023-04-27T21:56:24.717Z,9.80
2023-04-27T21:58:55.565Z,9.80
2023-04-27T22:01:27.362Z,9.90
2023-04-27T22:03:56.614Z,9.90
2023-04-27T22:06:25.831Z,9.90
2023-04-27T22:08:56.335Z,9.90
2023-04-27T22:11:25.832Z,9.90
2023-04-27T22:13:55.143Z,10.00
2023-04-27T22:16:24.493Z,10.00
2023-04-27T22:18:54.085Z,10.00
2023-04-27T22:21:45.639Z,10.00
2023-04-27T22:24:19.171Z,10.00
2023-04-27T22:26:48.740Z,10.00
2023-04-27T22:29:18.279Z,10.00
2023-04-27T22:31:47.391Z,10.00
2023-04-27T22:34:17.561Z,10.00
2023-04-27T22:36:47.017Z,10.00
2023-04-27T22:39:16.549Z,10.00
2023-04-27T22:41:47.324Z,10.00
2023-04-27T22:44:17.255Z,10.00
2023-04-27T22:47:06.013Z,10.00
2023-04-27T22:49:37.035Z,10.10
2023-04-27T22:52:07.171Z,10.00
2023-04-27T22:54:36.818Z,10.10
2023-04-27T22:57:08.022Z,10.00
2023-04-27T22:59:37.042Z,10.00
2023-04-27T23:02:06.267Z,10.10
2023-04-27T23:04:35.599Z,10.10
2023-04-27T23:07:06.054Z,10.00
2023-04-27T23:09:35.021Z,10.00
2023-04-27T23:12:04.401Z,10.00
2023-04-27T23:14:34.856Z,10.10
2023-04-27T23:17:04.553Z,10.10
2023-04-27T23:19:33.627Z,10.10
2023-04-27T23:22:02.918Z,10.10
2023-04-27T23:24:31.980Z,10.00
2023-04-27T23:27:01.649Z,10.00
2023-04-27T23:29:31.850Z,10.00
2023-04-27T23:32:05.461Z,10.00
2023-04-27T23:34:34.626Z,10.00
2023-04-27T23:37:03.665Z,10.00
2023-04-27T23:39:32.653Z,10.00
2023-04-27T23:42:01.982Z,10.00
2023-04-27T23:44:30.950Z,10.00
2023-04-27T23:47:00.268Z,10.00
2023-04-27T23:49:30.985Z,10.00
2023-04-27T23:52:00.361Z,10.00
2023-04-27T23:54:32.266Z,10.00
2023-04-27T23:57:01.611Z,10.00
2023-04-27T23:59:34.378Z,10.00
